Time;durP1;ratioP1;P1;durP2;ratioP2;P2;SDS_P1;SDS_P2;PMS_P1;PMS_P2;Temp;Humidity;BMP_temperature;BMP_pressure;BME280_temperature;BME280_humidity;BME280_pressure;Samples;Min_cycle;Max_cycle;Signal;HPM_P1;HPM_P2
2022/07/15 00:02:05;;;;;;;7.78;1.75;;;13.00;99.90;;;;;;5029068;28;20467;-68
2022/07/15 00:04:31;;;;;;;7.85;2.03;;;13.10;99.90;;;;;;5044525;28;20053;-68
2022/07/15 00:06:57;;;;;;;6.10;1.77;;;13.20;99.90;;;;;;5046923;28;20061;-68
2022/07/15 00:10:13;;;;;;;6.18;1.55;;;13.20;99.90;;;;;;5045195;28;20048;-68
2022/07/15 00:12:08;;;;;;;5.00;1.50;;;13.30;99.90;;;;;;5049477;28;20071;-68
2022/07/15 00:14:34;;;;;;;7.03;2.10;;;13.30;99.90;;;;;;5047907;28;20111;-67
2022/07/15 00:17:00;;;;;;;6.75;2.33;;;13.40;99.90;;;;;;5047906;28;20526;-67
2022/07/15 00:19:25;;;;;;;8.38;2.13;;;13.40;99.90;;;;;;5048868;28;20509;-67
2022/07/15 00:21:51;;;;;;;7.95;1.80;;;13.40;99.90;;;;;;5048859;28;20494;-67
2022/07/15 00:24:16;;;;;;;4.18;1.90;;;13.50;99.90;;;;;;5048900;28;20053;-68
2022/07/15 00:26:42;;;;;;;5.90;1.77;;;13.50;99.90;;;;;;5044566;28;20047;-68
2022/07/15 00:29:07;;;;;;;7.32;1.77;;;13.50;99.90;;;;;;5036705;28;20507;-67
2022/07/15 00:31:33;;;;;;;9.15;1.95;;;13.50;99.90;;;;;;5046670;28;20133;-68
2022/07/15 00:33:58;;;;;;;7.88;2.15;;;13.60;99.90;;;;;;5030459;28;20029;-68
2022/07/15 00:36:24;;;;;;;7.82;1.85;;;13.60;99.90;;;;;;5048083;28;20450;-68
2022/07/15 00:38:50;;;;;;;8.35;2.10;;;13.60;99.90;;;;;;5042922;28;20099;-68
2022/07/15 00:41:15;;;;;;;2.72;1.50;;;13.60;99.90;;;;;;5044964;28;20053;-68
2022/07/15 00:43:41;;;;;;;11.52;2.00;;;13.60;99.90;;;;;;5046166;28;20419;-68
2022/07/15 00:46:06;;;;;;;6.63;1.50;;;13.70;99.90;;;;;;5030701;28;20067;-68
2022/07/15 00:48:32;;;;;;;7.40;1.98;;;13.70;99.90;;;;;;5044199;28;20045;-68
2022/07/15 00:50:58;;;;;;;7.18;1.80;;;13.70;99.90;;;;;;5045622;28;20037;-68
2022/07/15 00:53:28;;;;;;;5.78;1.83;;;13.70;99.90;;;;;;5026682;28;20040;-68
2022/07/15 00:55:58;;;;;;;7.13;1.83;;;13.70;99.90;;;;;;5047505;28;20470;-68
2022/07/15 00:58:26;;;;;;;6.70;2.10;;;13.80;99.90;;;;;;5040852;28;21613;-68
2022/07/15 01:00:54;;;;;;;7.28;2.03;;;13.80;99.90;;;;;;5047950;28;20102;-68
2022/07/15 01:03:20;;;;;;;7.07;1.70;;;13.80;99.90;;;;;;5047368;28;20480;-68
2022/07/15 01:05:46;;;;;;;7.70;1.70;;;13.80;99.90;;;;;;5036299;28;20042;-68
2022/07/15 01:08:12;;;;;;;7.20;1.80;;;13.80;99.90;;;;;;5042941;28;20063;-68
2022/07/15 01:10:39;;;;;;;7.10;1.92;;;13.80;99.90;;;;;;5041807;28;20148;-68
2022/07/15 01:13:05;;;;;;;11.18;2.30;;;13.80;99.90;;;;;;5047125;28;20041;-68
2022/07/15 01:15:32;;;;;;;7.55;1.55;;;13.90;99.90;;;;;;5046752;28;20098;-67
2022/07/15 01:17:59;;;;;;;7.28;1.92;;;13.90;99.90;;;;;;5042197;28;20041;-68
2022/07/15 01:20:25;;;;;;;6.40;1.58;;;13.90;99.90;;;;;;5040113;28;20041;-67
2022/07/15 01:22:50;;;;;;;8.02;2.05;;;13.90;99.90;;;;;;5044675;28;20146;-68
2022/07/15 01:25:16;;;;;;;7.55;1.73;;;13.80;99.90;;;;;;5038163;28;20040;-68
2022/07/15 01:27:42;;;;;;;6.10;1.58;;;13.80;99.90;;;;;;5046519;28;20082;-68
2022/07/15 01:30:08;;;;;;;7.68;2.10;;;13.80;99.90;;;;;;5048586;28;20041;-68
2022/07/15 01:32:34;;;;;;;4.55;1.35;;;13.70;99.90;;;;;;5049864;28;20045;-68
2022/07/15 01:34:59;;;;;;;9.30;2.22;;;13.60;99.90;;;;;;5032711;28;20554;-68
2022/07/15 01:37:25;;;;;;;8.80;1.98;;;13.50;99.90;;;;;;5048905;28;20033;-67
2022/07/15 01:39:51;;;;;;;6.03;1.90;;;13.50;99.90;;;;;;5044636;28;20048;-68
2022/07/15 01:42:17;;;;;;;8.48;2.40;;;13.40;99.90;;;;;;5031775;28;20040;-67
2022/07/15 01:44:43;;;;;;;6.65;1.95;;;13.40;99.90;;;;;;5046822;28;20482;-67
2022/07/15 01:47:08;;;;;;;6.78;2.10;;;13.40;99.90;;;;;;5049141;28;20123;-67
2022/07/15 01:49:34;;;;;;;7.43;2.13;;;13.40;99.90;;;;;;5048853;28;20065;-67
2022/07/15 01:52:01;;;;;;;5.80;1.77;;;13.30;99.90;;;;;;5050174;28;20055;-67
2022/07/15 01:54:28;;;;;;;7.80;1.55;;;13.30;99.90;;;;;;5050922;28;20052;-68
2022/07/15 01:56:54;;;;;;;7.65;1.92;;;13.40;99.90;;;;;;5043291;28;20680;-67
2022/07/15 01:59:25;;;;;;;7.40;1.90;;;13.40;99.90;;;;;;5033311;28;20481;-67
2022/07/15 02:01:55;;;;;;;7.40;1.80;;;13.50;99.90;;;;;;5046493;28;20040;-68
2022/07/15 02:04:21;;;;;;;9.32;2.53;;;13.50;99.90;;;;;;5052342;28;20048;-68
2022/07/15 02:06:48;;;;;;;7.38;1.80;;;13.60;99.90;;;;;;5032839;28;21297;-67
2022/07/15 02:09:13;;;;;;;9.05;2.10;;;13.60;99.90;;;;;;5051237;28;20047;-67
2022/07/15 02:11:39;;;;;;;6.53;1.88;;;13.70;99.90;;;;;;5048402;28;20040;-68
2022/07/15 02:14:05;;;;;;;8.88;1.88;;;13.60;99.90;;;;;;5046004;28;20490;-68
2022/07/15 02:16:32;;;;;;;9.68;2.00;;;13.60;99.90;;;;;;5050258;28;20499;-68
2022/07/15 02:18:58;;;;;;;6.53;2.20;;;13.60;99.90;;;;;;5051143;28;20071;-68
2022/07/15 02:21:26;;;;;;;8.18;2.13;;;13.50;99.90;;;;;;5050314;28;20045;-67
2022/07/15 02:23:52;;;;;;;7.30;2.00;;;13.50;99.90;;;;;;5047106;28;20430;-68
2022/07/15 02:26:19;;;;;;;7.05;2.25;;;13.40;99.90;;;;;;5050178;28;20505;-68
2022/07/15 02:28:44;;;;;;;11.27;2.20;;;13.40;99.90;;;;;;5044748;28;20037;-68
2022/07/15 02:31:11;;;;;;;6.85;2.35;;;13.30;99.90;;;;;;5048543;28;20041;-67
2022/07/15 02:33:37;;;;;;;5.18;1.85;;;13.30;99.90;;;;;;5048263;28;20132;-67
2022/07/15 02:36:03;;;;;;;6.50;2.17;;;13.20;99.90;;;;;;5043512;28;20056;-68
2022/07/15 02:38:29;;;;;;;8.07;1.92;;;13.20;99.90;;;;;;5067578;28;20056;-68
2022/07/15 02:40:54;;;;;;;7.43;1.77;;;13.10;99.90;;;;;;5050005;28;20128;-68
2022/07/15 02:43:21;;;;;;;6.50;1.92;;;13.00;99.90;;;;;;5030853;28;20045;-68
2022/07/15 02:45:47;;;;;;;4.70;2.25;;;13.00;99.90;;;;;;5046780;28;20056;-69
2022/07/15 02:48:13;;;;;;;6.10;1.67;;;12.90;99.90;;;;;;5048823;28;20041;-66
2022/07/15 02:50:41;;;;;;;7.80;1.90;;;12.80;99.90;;;;;;5039091;28;20041;-68
2022/07/15 02:53:07;;;;;;;7.97;1.65;;;12.80;99.90;;;;;;5043278;28;20037;-67
2022/07/15 02:55:33;;;;;;;5.97;1.70;;;12.80;99.90;;;;;;5045893;28;20186;-68
2022/07/15 02:57:59;;;;;;;7.22;2.10;;;12.70;99.90;;;;;;5041449;28;20051;-67
2022/07/15 03:00:25;;;;;;;14.32;2.40;;;12.60;99.90;;;;;;5031728;28;20041;-67
2022/07/15 03:02:51;;;;;;;10.20;2.58;;;12.60;99.90;;;;;;5048462;28;20037;-67
2022/07/15 03:05:17;;;;;;;6.55;2.13;;;12.50;99.90;;;;;;5051331;28;20051;-67
2022/07/15 03:07:44;;;;;;;7.53;2.13;;;12.40;99.90;;;;;;5031819;28;20065;-68
2022/07/15 03:10:10;;;;;;;5.95;1.98;;;12.40;99.90;;;;;;5050381;28;20099;-67
2022/07/15 03:12:36;;;;;;;4.95;1.50;;;12.30;99.90;;;;;;5046704;28;20380;-67
2022/07/15 03:15:03;;;;;;;8.32;2.30;;;12.30;99.90;;;;;;5054416;28;20043;-67
2022/07/15 03:17:28;;;;;;;5.70;2.13;;;12.20;99.90;;;;;;5050661;28;20072;-68
2022/07/15 03:19:57;;;;;;;7.45;2.53;;;12.20;99.90;;;;;;5045512;28;20490;-68
2022/07/15 03:22:24;;;;;;;7.65;1.73;;;12.20;99.90;;;;;;5033984;28;20048;-68
2022/07/15 03:24:49;;;;;;;8.40;2.10;;;12.10;99.90;;;;;;5033874;28;20041;-67
2022/07/15 03:27:15;;;;;;;8.02;1.80;;;12.10;99.90;;;;;;5048428;28;20043;-67
2022/07/15 03:29:42;;;;;;;6.57;1.88;;;12.00;99.90;;;;;;5036819;28;20410;-67
2022/07/15 03:32:08;;;;;;;5.68;1.50;;;12.00;99.90;;;;;;5046245;28;20393;-68
2022/07/15 03:34:34;;;;;;;4.95;1.73;;;12.00;99.90;;;;;;5043286;28;20056;-68
2022/07/15 03:36:59;;;;;;;3.88;1.70;;;11.90;99.90;;;;;;5030170;28;20045;-68
2022/07/15 03:39:25;;;;;;;7.20;1.67;;;11.90;99.90;;;;;;5032298;28;20041;-68
2022/07/15 03:41:51;;;;;;;5.57;1.90;;;11.90;99.90;;;;;;5026795;28;20044;-67
2022/07/15 03:44:17;;;;;;;4.85;2.00;;;12.00;99.90;;;;;;5045510;28;20176;-67
2022/07/15 03:46:47;;;;;;;6.68;1.60;;;12.00;99.90;;;;;;5030678;28;20478;-67
2022/07/15 03:49:13;;;;;;;8.43;2.13;;;12.00;99.90;;;;;;5030562;28;20136;-68
2022/07/15 03:51:39;;;;;;;3.58;1.83;;;12.10;99.90;;;;;;5046360;28;20423;-68
2022/07/15 03:54:04;;;;;;;4.15;1.70;;;12.10;99.90;;;;;;5049834;28;20076;-68
2022/07/15 03:56:31;;;;;;;6.82;1.90;;;12.10;99.90;;;;;;5050019;28;20127;-68
2022/07/15 03:58:57;;;;;;;5.60;1.60;;;12.10;99.90;;;;;;5049541;28;20394;-67
2022/07/15 04:01:23;;;;;;;6.95;1.83;;;12.10;99.90;;;;;;5049375;28;20044;-68
2022/07/15 04:03:50;;;;;;;4.57;2.05;;;12.10;99.90;;;;;;5048102;28;20469;-67
2022/07/15 04:06:16;;;;;;;7.05;1.80;;;12.20;99.90;;;;;;5048639;28;20044;-67
2022/07/15 04:08:43;;;;;;;7.40;1.55;;;12.20;99.90;;;;;;5032342;28;20049;-68
2022/07/15 04:11:09;;;;;;;6.30;2.00;;;12.30;99.90;;;;;;5047983;28;20060;-68
2022/07/15 04:13:34;;;;;;;5.07;1.48;;;12.30;99.90;;;;;;5047041;28;20493;-68
2022/07/15 04:16:00;;;;;;;5.82;1.55;;;12.40;99.90;;;;;;5048867;28;20037;-68
2022/07/15 04:18:26;;;;;;;6.25;1.83;;;12.40;99.90;;;;;;5041617;28;20055;-68
2022/07/15 04:20:51;;;;;;;6.85;1.95;;;12.50;99.90;;;;;;5047893;28;20048;-68
2022/07/15 04:23:17;;;;;;;4.18;1.65;;;12.50;99.90;;;;;;5030089;28;20067;-67
2022/07/15 04:25:43;;;;;;;5.95;1.95;;;12.60;99.90;;;;;;5038644;28;20037;-68
2022/07/15 04:28:09;;;;;;;3.45;1.30;;;12.60;99.90;;;;;;5049913;28;20044;-68
2022/07/15 04:30:34;;;;;;;4.10;1.40;;;12.60;99.90;;;;;;5020041;28;20122;-67
2022/07/15 04:33:00;;;;;;;5.32;1.65;;;12.70;99.90;;;;;;5037836;28;20060;-67
2022/07/15 04:35:26;;;;;;;4.47;1.30;;;12.80;99.90;;;;;;5049785;28;20067;-68
2022/07/15 04:37:51;;;;;;;4.18;1.30;;;12.80;99.90;;;;;;5031968;28;20072;-68
2022/07/15 04:40:17;;;;;;;4.15;1.60;;;12.90;99.90;;;;;;5041536;28;20052;-68
2022/07/15 04:42:42;;;;;;;4.25;1.38;;;12.90;99.90;;;;;;5029813;28;20049;-67
2022/07/15 04:45:08;;;;;;;5.45;1.33;;;13.00;99.90;;;;;;5032330;28;20043;-67
2022/07/15 04:47:34;;;;;;;5.32;1.27;;;13.10;99.90;;;;;;5048509;28;20053;-68
2022/07/15 04:52:45;;;;;;;6.05;1.55;;;13.20;99.90;;;;;;5044225;28;20049;-67
2022/07/15 04:55:11;;;;;;;5.75;1.30;;;13.30;99.90;;;;;;5045753;28;20479;-67
2022/07/15 04:57:37;;;;;;;6.07;1.35;;;13.40;99.90;;;;;;5039137;28;20045;-67
2022/07/15 05:00:04;;;;;;;7.57;1.23;;;13.50;99.90;;;;;;5043714;28;20063;-67
2022/07/15 05:02:30;;;;;;;4.93;1.02;;;13.60;99.90;;;;;;5044868;28;20049;-68
2022/07/15 05:04:56;;;;;;;3.58;0.93;;;13.70;99.90;;;;;;5030924;28;20041;-68
2022/07/15 05:07:21;;;;;;;3.70;0.85;;;13.80;99.90;;;;;;5044668;28;20637;-68
2022/07/15 05:09:47;;;;;;;4.32;1.20;;;13.90;99.90;;;;;;5053405;28;20067;-68
2022/07/15 05:12:13;;;;;;;5.95;1.08;;;14.00;99.90;;;;;;5034242;28;20047;-67
2022/07/15 05:14:40;;;;;;;5.80;0.95;;;14.10;99.90;;;;;;5052436;28;20037;-68
2022/07/15 05:17:07;;;;;;;5.30;1.20;;;14.10;99.90;;;;;;5051047;28;20037;-68
2022/07/15 05:19:33;;;;;;;8.43;1.52;;;14.20;99.90;;;;;;5042911;28;20132;-67
2022/07/15 05:21:58;;;;;;;6.53;1.15;;;14.30;99.90;;;;;;5032536;28;20064;-67
2022/07/15 05:24:24;;;;;;;4.05;1.02;;;14.30;99.90;;;;;;5043542;28;20048;-68
2022/07/15 05:26:50;;;;;;;3.72;1.23;;;14.30;99.90;;;;;;5052694;28;20037;-68
2022/07/15 05:29:15;;;;;;;4.72;1.10;;;14.40;99.90;;;;;;5047802;28;20111;-68
2022/07/15 05:31:41;;;;;;;3.75;1.10;;;14.40;99.90;;;;;;5039956;28;20041;-68
2022/07/15 05:34:06;;;;;;;2.92;0.82;;;14.40;99.90;;;;;;5051634;28;20542;-68
2022/07/15 05:36:32;;;;;;;3.33;1.15;;;14.50;99.90;;;;;;5052204;28;20067;-68
2022/07/15 05:38:58;;;;;;;4.63;1.30;;;14.50;99.90;;;;;;5052108;28;20048;-69
2022/07/15 05:41:23;;;;;;;3.78;0.70;;;14.50;99.90;;;;;;5052038;28;20045;-67
2022/07/15 05:43:49;;;;;;;3.05;1.02;;;14.50;99.90;;;;;;5051892;28;20593;-67
2022/07/15 05:46:15;;;;;;;10.95;1.65;;;14.50;99.90;;;;;;5050621;28;20044;-66
2022/07/15 05:48:41;;;;;;;5.43;1.05;;;14.60;99.90;;;;;;5050878;28;20182;-68
2022/07/15 05:51:07;;;;;;;1.30;0.60;;;14.60;99.90;;;;;;5025783;28;20065;-68
2022/07/15 05:53:33;;;;;;;4.18;0.90;;;14.70;99.90;;;;;;5042827;28;20049;-67
2022/07/15 05:55:59;;;;;;;4.90;1.02;;;14.90;99.90;;;;;;5052586;28;20398;-67
2022/07/15 05:58:25;;;;;;;3.28;0.80;;;15.30;99.90;;;;;;5052662;28;20513;-68
2022/07/15 06:00:51;;;;;;;4.07;0.70;;;15.60;99.90;;;;;;5034494;28;20053;-67
2022/07/15 06:03:17;;;;;;;3.55;0.80;;;15.80;99.90;;;;;;5052345;28;20183;-68
2022/07/15 06:05:42;;;;;;;2.80;0.70;;;16.00;99.90;;;;;;5047889;28;20050;-67
2022/07/15 06:08:08;;;;;;;3.58;0.80;;;16.30;99.90;;;;;;5050589;28;20129;-68
2022/07/15 06:10:34;;;;;;;2.53;0.63;;;16.60;99.90;;;;;;5062832;28;20047;-68
2022/07/15 06:13:00;;;;;;;3.42;0.80;;;16.70;99.90;;;;;;5048949;28;20045;-68
2022/07/15 06:15:26;;;;;;;1.65;0.60;;;16.80;99.90;;;;;;5045320;28;20029;-68
2022/07/15 06:17:53;;;;;;;4.43;0.65;;;16.70;99.90;;;;;;5049410;28;20029;-68
2022/07/15 06:20:19;;;;;;;2.17;0.50;;;16.60;99.90;;;;;;5035135;28;20037;-68
2022/07/15 06:22:45;;;;;;;5.25;0.82;;;16.70;99.90;;;;;;5049943;22;20055;-68
2022/07/15 06:25:11;;;;;;;3.35;0.68;;;16.80;99.90;;;;;;5051220;28;20055;-68
2022/07/15 06:27:37;;;;;;;1.88;0.70;;;16.90;99.90;;;;;;5035677;28;20049;-68
2022/07/15 06:30:05;;;;;;;3.25;0.60;;;17.20;99.90;;;;;;5040270;28;20033;-68
2022/07/15 06:32:31;;;;;;;4.03;0.60;;;17.40;99.90;;;;;;5040078;28;20063;-67
2022/07/15 06:34:56;;;;;;;3.45;0.75;;;17.60;99.90;;;;;;5049954;28;20067;-67
2022/07/15 06:37:22;;;;;;;4.70;0.82;;;17.70;99.90;;;;;;5035111;28;20119;-68
2022/07/15 06:39:48;;;;;;;3.03;0.60;;;17.60;99.90;;;;;;5032123;28;20044;-67
2022/07/15 06:42:13;;;;;;;2.90;0.73;;;17.60;99.90;;;;;;5031934;28;20042;-68
2022/07/15 06:44:40;;;;;;;3.58;0.77;;;17.60;99.90;;;;;;5031665;28;20096;-67
2022/07/15 06:47:06;;;;;;;4.65;0.82;;;17.60;99.90;;;;;;5031857;28;20091;-67
2022/07/15 06:49:33;;;;;;;4.80;1.17;;;17.60;99.90;;;;;;5015372;28;20030;-67
2022/07/15 06:51:58;;;;;;;10.55;1.25;;;17.60;99.90;;;;;;5016245;28;20088;-67
2022/07/15 06:54:24;;;;;;;3.38;0.70;;;17.50;99.90;;;;;;5040247;28;20471;-68
2022/07/15 06:56:50;;;;;;;2.33;0.50;;;17.50;99.90;;;;;;5035235;28;20052;-69
2022/07/15 06:59:16;;;;;;;6.32;0.88;;;18.10;99.90;;;;;;5038129;28;20049;-68
2022/07/15 07:01:41;;;;;;;3.85;1.15;;;18.90;99.90;;;;;;5024064;28;20042;-68
2022/07/15 07:04:07;;;;;;;3.47;0.88;;;20.40;99.90;;;;;;5040072;28;20081;-68
2022/07/15 07:06:33;;;;;;;3.95;0.70;;;22.00;98.20;;;;;;5049415;28;20048;-67
2022/07/15 07:08:58;;;;;;;3.55;0.55;;;23.40;94.90;;;;;;5047000;28;20037;-68
2022/07/15 07:11:25;;;;;;;2.45;0.68;;;24.40;92.20;;;;;;5050146;28;20049;-67
2022/07/15 07:13:50;;;;;;;3.70;0.70;;;24.60;91.70;;;;;;5050072;28;20073;-68
2022/07/15 07:16:17;;;;;;;2.70;0.55;;;24.70;91.30;;;;;;5048011;28;20076;-68
2022/07/15 07:18:45;;;;;;;2.67;0.70;;;24.40;91.40;;;;;;5050204;28;20036;-68
2022/07/15 07:21:11;;;;;;;3.22;0.70;;;24.10;91.50;;;;;;5050780;28;20087;-68
2022/07/15 07:23:39;;;;;;;1.55;0.60;;;23.40;90.10;;;;;;5033432;28;20438;-68
2022/07/15 07:26:05;;;;;;;3.03;0.50;;;23.00;91.60;;;;;;5033005;28;20110;-68
2022/07/15 07:28:32;;;;;;;2.58;1.00;;;22.70;90.40;;;;;;5030064;28;20068;-68
2022/07/15 07:30:58;;;;;;;4.38;0.70;;;22.90;91.30;;;;;;5041056;28;20053;-68
2022/07/15 07:33:24;;;;;;;2.08;0.40;;;23.80;91.20;;;;;;5030812;28;20049;-68
2022/07/15 07:35:49;;;;;;;1.70;0.45;;;24.50;90.20;;;;;;5030625;28;20037;-68
2022/07/15 07:38:15;;;;;;;5.57;0.70;;;25.40;88.10;;;;;;5031308;28;20087;-68
2022/07/15 07:40:41;;;;;;;3.25;0.52;;;25.10;82.40;;;;;;5030767;28;20041;-68
2022/07/15 07:43:06;;;;;;;2.00;0.63;;;24.70;85.70;;;;;;5033383;28;20076;-68
2022/07/15 07:45:32;;;;;;;4.28;0.70;;;24.60;82.90;;;;;;5048826;28;20037;-69
2022/07/15 07:47:58;;;;;;;2.22;0.40;;;23.70;85.90;;;;;;5045952;28;20040;-69
2022/07/15 07:50:24;;;;;;;3.15;0.73;;;22.80;84.50;;;;;;5034128;28;20037;-69
2022/07/15 07:52:49;;;;;;;8.27;0.80;;;22.80;87.80;;;;;;5029037;28;20478;-69
2022/07/15 07:55:15;;;;;;;2.88;0.68;;;22.70;89.00;;;;;;5044162;28;20041;-69
2022/07/15 07:57:53;;;;;;;3.45;0.40;;;22.50;86.60;;;;;;5029855;28;20049;-68
2022/07/15 08:00:20;;;;;;;1.92;0.60;;;23.60;87.20;;;;;;5044287;28;20045;-68
2022/07/15 08:02:46;;;;;;;1.50;0.40;;;24.30;86.90;;;;;;5029926;28;20049;-68
2022/07/15 08:05:13;;;;;;;1.08;0.45;;;24.70;83.30;;;;;;5038350;28;20078;-68
2022/07/15 08:07:39;;;;;;;1.83;0.65;;;25.40;82.10;;;;;;5041621;28;20486;-68
2022/07/15 08:10:05;;;;;;;2.33;0.50;;;25.50;82.00;;;;;;5032133;28;20094;-68
2022/07/15 08:12:31;;;;;;;3.05;0.65;;;25.00;82.50;;;;;;5048498;28;20041;-68
2022/07/15 08:14:57;;;;;;;1.83;0.40;;;24.50;82.50;;;;;;5044751;28;20033;-69
2022/07/15 08:17:23;;;;;;;1.70;0.35;;;23.70;83.90;;;;;;5027689;28;20040;-68
2022/07/15 08:19:49;;;;;;;2.47;0.45;;;23.00;85.50;;;;;;5045465;28;20041;-68
2022/07/15 08:22:14;;;;;;;13.13;2.05;;;22.30;86.80;;;;;;5047831;28;20075;-68
2022/07/15 08:24:41;;;;;;;2.22;0.60;;;21.70;89.10;;;;;;5046642;28;20163;-69
2022/07/15 08:27:07;;;;;;;2.63;0.70;;;21.40;90.20;;;;;;5047760;28;20117;-68
2022/07/15 08:29:32;;;;;;;5.57;1.17;;;21.10;90.60;;;;;;5049981;28;20478;-68
2022/07/15 08:31:58;;;;;;;1.50;0.40;;;20.70;90.50;;;;;;5048488;28;20482;-68
2022/07/15 08:34:23;;;;;;;2.95;0.73;;;20.50;91.00;;;;;;5041978;28;20382;-68
2022/07/15 08:36:49;;;;;;;1.73;0.40;;;20.20;90.80;;;;;;5042509;28;20091;-68
2022/07/15 08:39:15;;;;;;;11.05;1.80;;;20.30;92.00;;;;;;5031860;28;20041;-68
2022/07/15 08:41:41;;;;;;;3.22;0.47;;;20.30;91.80;;;;;;5037682;28;20056;-68
2022/07/15 08:44:07;;;;;;;1.73;0.40;;;20.10;91.30;;;;;;5047580;28;20036;-68
2022/07/15 08:46:35;;;;;;;2.25;0.50;;;20.20;91.80;;;;;;5045171;28;20045;-69
2022/07/15 08:49:08;;;;;;;3.72;0.55;;;20.20;91.90;;;;;;5048142;28;20033;-69
2022/07/15 08:51:38;;;;;;;1.48;0.45;;;20.20;91.80;;;;;;5041899;28;20055;-68
2022/07/15 08:54:05;;;;;;;3.15;0.90;;;20.10;92.30;;;;;;5045438;28;20047;-67
2022/07/15 08:56:33;;;;;;;1.73;0.40;;;20.00;92.50;;;;;;5046637;28;20043;-68
2022/07/15 08:59:01;;;;;;;1.60;0.40;;;19.30;92.90;;;;;;5049508;28;20045;-68
2022/07/15 09:01:28;;;;;;;2.28;0.45;;;19.40;93.50;;;;;;5037367;28;20052;-69
2022/07/15 09:03:54;;;;;;;2.40;0.60;;;19.20;93.50;;;;;;5031277;28;20615;-69
2022/07/15 09:06:40;;;;;;;2.67;0.60;;;19.10;93.80;;;;;;5030824;28;20059;-69
2022/07/15 09:09:23;;;;;;;1.85;0.43;;;19.10;94.30;;;;;;5048409;28;20119;-69
2022/07/15 09:12:09;;;;;;;2.10;0.40;;;18.90;94.50;;;;;;5048522;28;20049;-69
2022/07/15 09:14:36;;;;;;;2.30;0.43;;;18.90;95.30;;;;;;5047844;28;20406;-69
2022/07/15 09:17:11;;;;;;;2.22;0.57;;;19.00;95.00;;;;;;5029618;28;20664;-68
2022/07/15 09:19:57;;;;;;;1.45;0.30;;;19.10;95.00;;;;;;5036554;28;20072;-69
2022/07/15 09:22:23;;;;;;;2.58;0.50;;;19.40;94.90;;;;;;5024543;28;20143;-69
2022/07/15 09:25:05;;;;;;;1.35;0.40;;;19.60;94.80;;;;;;5029346;28;20062;-69
2022/07/15 09:27:35;;;;;;;1.60;0.40;;;19.90;94.20;;;;;;5048685;28;20037;-69
2022/07/15 09:36:08;;;;;;;2.67;0.52;;;20.40;93.60;;;;;;5063865;28;20653;-68
2022/07/15 09:38:55;;;;;;;1.60;0.40;;;20.40;93.20;;;;;;5043594;28;20124;-68
2022/07/15 09:41:37;;;;;;;1.15;0.35;;;20.40;93.10;;;;;;5042622;28;20052;-67
2022/07/15 09:44:22;;;;;;;;;;;20.30;92.80;;;;;;5059754;28;20037;-68
2022/07/15 09:46:53;;;;;;;1.05;0.30;;;20.20;92.90;;;;;;5046160;28;19925;-68
2022/07/15 09:49:22;;;;;;;1.58;0.40;;;20.00;92.80;;;;;;5048236;28;20408;-68
2022/07/15 09:51:54;;;;;;;1.60;0.40;;;20.00;93.10;;;;;;5047311;28;20060;-68
2022/07/15 09:54:21;;;;;;;1.13;0.45;;;19.90;93.20;;;;;;5046869;28;20079;-69
2022/07/15 09:56:47;;;;;;;1.10;0.35;;;20.00;93.20;;;;;;5016257;28;20037;-68
2022/07/15 09:59:14;;;;;;;0.98;0.32;;;20.10;93.10;;;;;;5026322;28;20483;-69
2022/07/15 10:01:41;;;;;;;1.55;0.45;;;20.30;93.10;;;;;;5052653;28;20074;-69
2022/07/15 10:04:06;;;;;;;0.73;0.30;;;20.70;92.20;;;;;;5047009;28;20064;-69
2022/07/15 10:06:38;;;;;;;1.55;0.40;;;21.00;90.80;;;;;;5044423;28;20084;-69
2022/07/15 10:09:05;;;;;;;1.00;0.40;;;21.40;91.40;;;;;;5051455;28;20476;-66
2022/07/15 10:11:34;;;;;;;1.05;0.30;;;21.60;90.90;;;;;;5052761;28;20056;-67
2022/07/15 10:14:31;;;;;;;0.68;0.30;;;21.80;90.80;;;;;;5040533;28;20032;-68
2022/07/15 10:17:20;;;;;;;1.80;0.70;;;21.90;89.40;;;;;;5030721;28;20047;-67
2022/07/15 10:20:10;;;;;;;1.00;0.30;;;21.90;89.50;;;;;;5046991;28;20048;-68
2022/07/15 10:22:54;;;;;;;1.02;0.40;;;22.00;89.80;;;;;;5043372;28;20060;-69
2022/07/15 10:25:25;;;;;;;2.75;0.50;;;22.00;89.60;;;;;;5051111;28;20045;-67
2022/07/15 10:28:07;;;;;;;0.68;0.30;;;21.90;89.50;;;;;;5035802;28;20090;-68
2022/07/15 10:30:33;;;;;;;2.10;0.50;;;21.90;90.20;;;;;;5035834;28;20150;-68
2022/07/15 10:33:19;;;;;;;1.45;0.50;;;21.90;89.90;;;;;;5051498;28;20141;-68
2022/07/15 10:35:53;;;;;;;1.00;0.43;;;21.80;87.30;;;;;;5033210;28;20079;-68
2022/07/15 10:38:36;;;;;;;1.17;0.35;;;21.70;88.10;;;;;;5051107;28;20080;-68
2022/07/15 10:41:10;;;;;;;2.33;0.50;;;21.80;88.50;;;;;;5029357;28;20037;-69
2022/07/15 10:43:42;;;;;;;0.73;0.40;;;21.80;87.00;;;;;;5039498;28;20044;-69
2022/07/15 10:46:17;;;;;;;0.70;0.30;;;21.30;87.90;;;;;;5052144;28;20465;-69
2022/07/15 10:48:58;;;;;;;0.57;0.40;;;21.20;88.90;;;;;;5045855;28;20052;-69
2022/07/15 10:51:36;;;;;;;1.63;0.50;;;21.60;90.30;;;;;;5034347;28;20060;-69
2022/07/15 10:54:07;;;;;;;2.03;0.50;;;21.80;90.60;;;;;;5050333;28;20044;-69
2022/07/15 10:56:34;;;;;;;2.92;0.50;;;22.40;87.00;;;;;;5048379;28;20033;-69
2022/07/15 10:59:19;;;;;;;1.85;0.40;;;22.90;89.40;;;;;;5046077;28;20037;-69
2022/07/15 11:02:15;;;;;;;1.40;0.43;;;23.00;86.90;;;;;;5049316;28;20060;-69
2022/07/15 11:04:42;;;;;;;2.00;0.47;;;23.00;87.60;;;;;;5047133;28;20541;-69
2022/07/15 11:07:09;;;;;;;1.50;0.40;;;22.70;87.40;;;;;;5044020;28;20619;-69
2022/07/15 11:09:57;;;;;;;3.38;0.68;;;22.30;87.40;;;;;;5038181;28;20064;-69
2022/07/15 11:12:28;;;;;;;1.60;0.40;;;21.90;88.50;;;;;;5047742;28;20083;-69
2022/07/15 11:14:55;;;;;;;;;;;21.60;90.00;;;;;;5046766;28;20044;-68
2022/07/15 11:17:42;;;;;;;4.10;0.40;;;21.30;90.90;;;;;;5032844;28;20373;-69
2022/07/15 11:20:17;;;;;;;1.92;0.45;;;21.20;90.80;;;;;;5040196;28;20167;-69
2022/07/15 11:22:48;;;;;;;2.15;0.40;;;21.20;91.10;;;;;;5048812;28;20048;-69
2022/07/15 11:25:30;;;;;;;1.27;0.40;;;21.30;91.00;;;;;;5044381;28;20064;-69
2022/07/15 11:28:09;;;;;;;1.58;0.30;;;21.40;91.10;;;;;;5028443;28;20044;-70
2022/07/15 11:30:38;;;;;;;2.72;0.40;;;21.40;91.30;;;;;;5026662;28;20029;-70
2022/07/15 11:33:07;;;;;;;3.42;0.52;;;21.40;91.20;;;;;;5026701;28;20120;-69
2022/07/15 11:35:43;;;;;;;2.30;0.50;;;21.50;90.90;;;;;;5044759;28;20033;-69
2022/07/15 11:38:09;;;;;;;3.55;0.73;;;21.50;90.70;;;;;;5048842;28;20037;-69
2022/07/15 11:46:05;;;;;;;2.45;0.52;;;21.90;90.20;;;;;;5047267;28;20490;-70
2022/07/15 11:48:38;;;;;;;1.25;0.40;;;22.10;89.50;;;;;;5041942;28;20037;-69
2022/07/15 11:51:06;;;;;;;1.13;0.50;;;22.50;90.00;;;;;;5032464;28;20090;-68
2022/07/15 11:53:41;;;;;;;1.75;0.50;;;22.90;88.60;;;;;;5049712;28;20037;-69
2022/07/15 11:56:08;;;;;;;1.90;0.40;;;23.20;86.30;;;;;;5049567;28;20037;-71
2022/07/15 11:58:43;;;;;;;1.83;0.45;;;23.10;86.40;;;;;;5045174;28;20069;-69
2022/07/15 12:01:15;;;;;;;0.50;0.32;;;22.90;85.00;;;;;;5029221;28;20045;-69
2022/07/15 12:03:45;;;;;;;3.72;0.57;;;23.10;85.40;;;;;;5044535;28;20476;-69
2022/07/15 12:06:22;;;;;;;3.25;0.60;;;22.90;82.90;;;;;;5046709;28;20513;-69
2022/07/15 12:08:48;;;;;;;1.33;0.50;;;23.10;85.10;;;;;;5062909;28;20332;-69
2022/07/15 12:11:21;;;;;;;3.47;1.45;;;23.10;85.90;;;;;;5047991;28;20860;-70
2022/07/15 12:13:50;;;;;;;1.15;0.40;;;23.20;85.90;;;;;;5048061;28;20044;-70
2022/07/15 12:16:19;;;;;;;1.60;0.40;;;23.00;84.90;;;;;;5049652;28;20060;-70
2022/07/15 12:18:46;;;;;;;1.85;0.40;;;23.20;86.20;;;;;;5049967;28;20070;-69
2022/07/15 12:21:12;;;;;;;2.08;0.30;;;23.30;86.20;;;;;;5047178;28;20494;-69
2022/07/15 12:23:37;;;;;;;0.90;0.40;;;23.40;85.80;;;;;;5039855;28;20072;-69
2022/07/15 12:26:05;;;;;;;2.42;0.65;;;23.40;85.30;;;;;;5031577;28;21032;-69
2022/07/15 12:28:32;;;;;;;0.32;0.20;;;23.30;85.10;;;;;;5035601;28;20566;-69
2022/07/15 12:30:59;;;;;;;0.82;0.30;;;23.10;84.10;;;;;;5043734;28;20037;-68
2022/07/15 12:33:25;;;;;;;1.42;0.57;;;23.00;84.10;;;;;;5030308;28;20044;-69
2022/07/15 12:36:13;;;;;;;1.40;0.47;;;22.70;82.70;;;;;;5027648;28;20043;-69
2022/07/15 12:38:39;;;;;;;0.60;0.30;;;22.30;83.40;;;;;;5043349;28;20608;-70
2022/07/15 12:41:24;;;;;;;1.27;0.40;;;22.30;86.80;;;;;;5029430;28;20049;-70
2022/07/15 12:43:56;;;;;;;2.20;0.47;;;22.40;86.80;;;;;;5040956;28;20045;-68
2022/07/15 12:46:52;;;;;;;1.05;0.40;;;22.40;83.50;;;;;;5049099;28;20183;-69
2022/07/15 12:49:48;;;;;;;2.40;0.40;;;22.20;82.40;;;;;;5048688;28;20052;-69
2022/07/15 12:52:22;;;;;;;1.67;0.40;;;22.30;86.10;;;;;;5049518;22;20044;-69
2022/07/15 12:54:49;;;;;;;0.30;0.30;;;22.30;85.70;;;;;;5023088;28;20058;-69
2022/07/15 12:57:33;;;;;;;0.55;0.45;;;21.80;81.80;;;;;;5009042;28;20036;-70
2022/07/15 13:00:20;;;;;;;0.85;0.47;;;21.80;82.60;;;;;;5032679;28;20375;-69
2022/07/15 13:03:16;;;;;;;1.42;0.45;;;22.20;84.90;;;;;;5013274;28;20129;-69
2022/07/15 13:06:02;;;;;;;1.63;0.40;;;22.70;87.00;;;;;;4987838;28;20057;-69
2022/07/15 13:08:31;;;;;;;1.70;0.60;;;22.90;85.80;;;;;;5024603;28;20060;-70
2022/07/15 13:11:02;;;;;;;1.25;0.47;;;22.90;84.70;;;;;;5029268;28;20072;-70